sensor_id;sensor_type;location;lat;lon;timestamp;P1;durP1;ratioP1;P2;durP2;ratioP2
21301;SDS011;10810;48.270;9.996;2022-10-16T00:02:14;1.63;;;1.00;;
21301;SDS011;10810;48.270;9.996;2022-10-16T00:05:15;3.00;;;1.17;;
21301;SDS011;10810;48.270;9.996;2022-10-16T00:07:49;1.17;;;0.97;;
21301;SDS011;10810;48.270;9.996;2022-10-16T00:13:47;1.33;;;0.90;;
21301;SDS011;10810;48.270;9.996;2022-10-16T00:17:22;4.00;;;1.30;;
21301;SDS011;10810;48.270;9.996;2022-10-16T00:20:31;1.60;;;0.90;;
21301;SDS011;10810;48.270;9.996;2022-10-16T00:24:52;1.93;;;1.17;;
21301;SDS011;10810;48.270;9.996;2022-10-16T00:33:16;1.80;;;1.00;;
21301;SDS011;10810;48.270;9.996;2022-10-16T00:37:48;3.20;;;0.90;;
21301;SDS011;10810;48.270;9.996;2022-10-16T00:39:38;2.10;;;1.20;;
21301;SDS011;10810;48.270;9.996;2022-10-16T00:42:59;1.70;;;1.00;;
21301;SDS011;10810;48.270;9.996;2022-10-16T00:52:07;1.07;;;0.93;;
21301;SDS011;10810;48.270;9.996;2022-10-16T02:11:15;2.03;;;1.00;;
21301;SDS011;10810;48.270;9.996;2022-10-16T02:15:14;3.40;;;0.90;;
21301;SDS011;10810;48.270;9.996;2022-10-16T02:20:48;1.30;;;0.80;;
21301;SDS011;10810;48.270;9.996;2022-10-16T02:23:59;2.97;;;1.33;;
21301;SDS011;10810;48.270;9.996;2022-10-16T02:33:27;1.87;;;1.00;;
21301;SDS011;10810;48.270;9.996;2022-10-16T02:39:52;0.70;;;0.70;;
21301;SDS011;10810;48.270;9.996;2022-10-16T02:43:09;3.27;;;0.90;;
21301;SDS011;10810;48.270;9.996;2022-10-16T02:46:24;1.53;;;0.90;;
21301;SDS011;10810;48.270;9.996;2022-10-16T02:52:12;1.73;;;0.90;;
21301;SDS011;10810;48.270;9.996;2022-10-16T02:54:54;2.27;;;0.97;;
21301;SDS011;10810;48.270;9.996;2022-10-16T02:58:35;1.40;;;1.10;;
21301;SDS011;10810;48.270;9.996;2022-10-16T03:00:58;2.33;;;0.90;;
21301;SDS011;10810;48.270;9.996;2022-10-16T03:04:25;1.20;;;0.97;;
21301;SDS011;10810;48.270;9.996;2022-10-16T03:07:25;4.80;;;0.80;;
21301;SDS011;10810;48.270;9.996;2022-10-16T03:15:21;1.77;;;0.80;;
21301;SDS011;10810;48.270;9.996;2022-10-16T03:17:34;1.83;;;0.97;;
21301;SDS011;10810;48.270;9.996;2022-10-16T03:20:45;5.23;;;1.17;;
21301;SDS011;10810;48.270;9.996;2022-10-16T03:23:20;1.57;;;1.10;;
21301;SDS011;10810;48.270;9.996;2022-10-16T03:27:00;1.20;;;0.90;;
21301;SDS011;10810;48.270;9.996;2022-10-16T03:32:55;4.33;;;0.97;;
21301;SDS011;10810;48.270;9.996;2022-10-16T03:35:52;2.30;;;0.60;;
21301;SDS011;10810;48.270;9.996;2022-10-16T03:45:53;1.47;;;1.00;;
21301;SDS011;10810;48.270;9.996;2022-10-16T03:53:25;1.30;;;0.97;;
21301;SDS011;10810;48.270;9.996;2022-10-16T03:58:52;1.93;;;0.80;;
21301;SDS011;10810;48.270;9.996;2022-10-16T04:01:30;1.90;;;0.87;;
21301;SDS011;10810;48.270;9.996;2022-10-16T04:04:07;1.60;;;1.00;;
21301;SDS011;10810;48.270;9.996;2022-10-16T04:07:01;1.40;;;0.90;;
21301;SDS011;10810;48.270;9.996;2022-10-16T04:09:37;1.53;;;0.97;;
21301;SDS011;10810;48.270;9.996;2022-10-16T04:12:51;2.37;;;1.00;;
21301;SDS011;10810;48.270;9.996;2022-10-16T04:31:17;3.60;;;0.97;;
21301;SDS011;10810;48.270;9.996;2022-10-16T04:35:24;1.53;;;0.90;;
21301;SDS011;10810;48.270;9.996;2022-10-16T04:37:51;3.57;;;0.80;;
21301;SDS011;10810;48.270;9.996;2022-10-16T04:40:27;1.53;;;0.90;;
21301;SDS011;10810;48.270;9.996;2022-10-16T04:43:15;1.27;;;0.83;;
21301;SDS011;10810;48.270;9.996;2022-10-16T04:46:32;3.13;;;0.80;;
21301;SDS011;10810;48.270;9.996;2022-10-16T04:49:31;2.57;;;0.80;;
21301;SDS011;10810;48.270;9.996;2022-10-16T04:52:42;1.90;;;0.90;;
21301;SDS011;10810;48.270;9.996;2022-10-16T04:55:44;1.73;;;0.90;;
21301;SDS011;10810;48.270;9.996;2022-10-16T04:58:57;1.37;;;0.83;;
21301;SDS011;10810;48.270;9.996;2022-10-16T05:01:56;1.53;;;0.80;;
21301;SDS011;10810;48.270;9.996;2022-10-16T05:05:22;4.50;;;1.00;;
21301;SDS011;10810;48.270;9.996;2022-10-16T05:09:09;1.17;;;0.87;;
21301;SDS011;10810;48.270;9.996;2022-10-16T05:11:13;2.23;;;0.83;;
21301;SDS011;10810;48.270;9.996;2022-10-16T05:13:49;3.60;;;0.80;;
21301;SDS011;10810;48.270;9.996;2022-10-16T05:16:31;3.07;;;1.00;;
21301;SDS011;10810;48.270;9.996;2022-10-16T05:21:16;3.23;;;1.00;;
21301;SDS011;10810;48.270;9.996;2022-10-16T05:22:55;1.40;;;0.90;;
21301;SDS011;10810;48.270;9.996;2022-10-16T05:29:06;1.50;;;0.90;;
21301;SDS011;10810;48.270;9.996;2022-10-16T08:28:36;5.23;;;2.03;;
21301;SDS011;10810;48.270;9.996;2022-10-16T08:31:08;3.33;;;1.60;;
21301;SDS011;10810;48.270;9.996;2022-10-16T08:33:42;3.23;;;1.57;;
21301;SDS011;10810;48.270;9.996;2022-10-16T08:36:42;3.30;;;1.60;;
21301;SDS011;10810;48.270;9.996;2022-10-16T08:39:24;3.47;;;1.70;;
21301;SDS011;10810;48.270;9.996;2022-10-16T08:42:03;2.30;;;1.47;;
21301;SDS011;10810;48.270;9.996;2022-10-16T15:47:55;1.80;;;1.10;;
21301;SDS011;10810;48.270;9.996;2022-10-16T15:50:25;1.50;;;1.10;;
21301;SDS011;10810;48.270;9.996;2022-10-16T15:53:28;2.17;;;1.00;;
21301;SDS011;10810;48.270;9.996;2022-10-16T15:55:46;1.57;;;0.87;;
21301;SDS011;10810;48.270;9.996;2022-10-16T15:58:16;2.27;;;1.30;;
21301;SDS011;10810;48.270;9.996;2022-10-16T16:00:53;1.40;;;1.07;;
21301;SDS011;10810;48.270;9.996;2022-10-16T16:03:30;4.43;;;2.17;;
21301;SDS011;10810;48.270;9.996;2022-10-16T16:06:20;4.97;;;2.50;;
21301;SDS011;10810;48.270;9.996;2022-10-16T16:08:55;6.57;;;2.90;;
21301;SDS011;10810;48.270;9.996;2022-10-16T16:14:27;5.23;;;2.80;;
21301;SDS011;10810;48.270;9.996;2022-10-16T16:17:01;5.93;;;2.60;;
